createdAt,value
2023-05-30T00:01:21.005Z,11.44
2023-05-30T00:03:50.377Z,11.43
2023-05-30T00:06:19.192Z,11.44
2023-05-30T00:08:47.557Z,11.45
2023-05-30T00:11:15.830Z,11.43
2023-05-30T00:13:44.790Z,11.43
2023-05-30T00:16:15.680Z,11.40
2023-05-30T00:18:44.864Z,11.37
2023-05-30T00:21:13.563Z,11.35
2023-05-30T00:23:41.949Z,11.29
2023-05-30T00:26:10.206Z,11.24
2023-05-30T00:28:40.100Z,11.25
2023-05-30T00:31:09.094Z,11.26
2023-05-30T00:33:37.072Z,11.28
2023-05-30T00:36:05.801Z,11.31
2023-05-30T00:38:33.814Z,11.32
2023-05-30T00:41:03.977Z,11.30
2023-05-30T00:43:32.161Z,11.26
2023-05-30T00:46:02.189Z,11.22
2023-05-30T00:48:30.606Z,11.19
2023-05-30T00:50:59.552Z,11.16
2023-05-30T00:53:29.705Z,11.12
2023-05-30T00:56:00.190Z,11.10
2023-05-30T00:58:28.521Z,11.09
2023-05-30T01:00:59.267Z,11.04
2023-05-30T01:03:34.913Z,11.00
2023-05-30T01:06:05.167Z,10.97
2023-05-30T01:08:33.866Z,10.94
2023-05-30T01:11:10.735Z,10.93
2023-05-30T01:13:52.264Z,10.92
2023-05-30T01:16:26.880Z,10.88
2023-05-30T01:19:33.215Z,10.85
2023-05-30T01:22:14.130Z,10.78
2023-05-30T01:24:53.596Z,10.74
2023-05-30T01:27:56.382Z,10.71
2023-05-30T01:30:27.377Z,10.67
2023-05-30T01:32:55.674Z,10.64
2023-05-30T01:35:25.859Z,10.62
2023-05-30T01:37:54.128Z,10.58
2023-05-30T01:40:25.683Z,10.50
2023-05-30T01:43:25.296Z,10.46
2023-05-30T01:46:09.428Z,10.40
2023-05-30T01:48:45.706Z,10.30
2023-05-30T01:51:21.349Z,10.22
2023-05-30T01:53:57.776Z,10.15
2023-05-30T01:56:29.303Z,10.12
2023-05-30T01:58:58.517Z,10.09
2023-05-30T02:01:30.233Z,10.05
2023-05-30T02:03:59.121Z,10.00
2023-05-30T02:06:27.503Z,9.93
2023-05-30T02:08:55.575Z,9.89
2023-05-30T02:11:24.078Z,9.84
2023-05-30T02:13:54.645Z,9.78
2023-05-30T02:16:22.881Z,9.74
2023-05-30T02:18:51.783Z,9.69
2023-05-30T02:21:22.350Z,9.67
2023-05-30T02:23:51.211Z,9.62
2023-05-30T02:26:19.548Z,9.59
2023-05-30T02:28:48.050Z,9.57
2023-05-30T02:31:17.042Z,9.55
2023-05-30T02:33:45.827Z,9.53
2023-05-30T02:36:14.925Z,9.53
2023-05-30T02:38:43.838Z,9.49
2023-05-30T02:41:13.019Z,9.45
2023-05-30T02:43:42.462Z,9.40
2023-05-30T02:46:10.794Z,9.35
2023-05-30T02:48:41.427Z,9.29
2023-05-30T02:51:09.710Z,9.27
2023-05-30T02:53:38.398Z,9.24
2023-05-30T02:56:07.493Z,9.19
2023-05-30T02:59:07.719Z,9.11
2023-05-30T03:01:55.016Z,9.07
2023-05-30T03:04:23.827Z,9.04
2023-05-30T03:06:53.435Z,9.00
2023-05-30T03:09:24.693Z,8.97
2023-05-30T03:11:52.910Z,8.97
2023-05-30T03:14:22.193Z,8.95
2023-05-30T03:16:50.262Z,8.93
2023-05-30T03:19:20.251Z,8.92
2023-05-30T03:21:50.988Z,8.91
2023-05-30T03:24:20.284Z,8.91
2023-05-30T03:26:51.471Z,8.90
2023-05-30T03:29:21.340Z,8.87
2023-05-30T03:31:50.183Z,8.83
2023-05-30T03:34:18.608Z,8.85
2023-05-30T03:36:47.295Z,8.84
2023-05-30T03:39:15.674Z,8.85
2023-05-30T03:41:43.952Z,8.87
2023-05-30T03:44:13.495Z,8.89
2023-05-30T03:46:41.999Z,8.89
2023-05-30T03:49:10.521Z,8.93
2023-05-30T03:51:38.902Z,8.93
2023-05-30T03:54:09.945Z,8.96
2023-05-30T03:56:37.869Z,8.96
2023-05-30T03:59:09.863Z,8.97
2023-05-30T04:01:39.197Z,9.01
2023-05-30T04:04:07.384Z,9.05
2023-05-30T04:06:37.919Z,9.09
2023-05-30T04:09:07.012Z,9.16
2023-05-30T04:11:35.461Z,9.22
2023-05-30T04:14:04.123Z,9.28
2023-05-30T04:16:32.890Z,9.34
2023-05-30T04:19:00.913Z,9.42
2023-05-30T04:21:30.349Z,9.52
2023-05-30T04:23:58.286Z,9.57
2023-05-30T04:26:26.688Z,9.62
2023-05-30T04:28:58.404Z,9.70
2023-05-30T04:31:27.123Z,9.74
2023-05-30T04:33:57.343Z,9.81
2023-05-30T04:36:28.728Z,9.89
2023-05-30T04:38:57.155Z,9.96
2023-05-30T04:41:27.898Z,10.05
2023-05-30T04:43:59.442Z,10.13
2023-05-30T04:46:30.347Z,10.23
2023-05-30T04:49:03.151Z,10.30
2023-05-30T04:51:34.728Z,10.40
2023-05-30T04:54:03.423Z,10.47
2023-05-30T04:56:32.098Z,10.54
2023-05-30T04:59:00.782Z,10.60
2023-05-30T05:01:29.577Z,10.68
2023-05-30T05:03:57.790Z,10.75
2023-05-30T05:06:26.534Z,10.82
2023-05-30T05:08:54.428Z,10.92
2023-05-30T05:11:22.827Z,11.03
2023-05-30T05:13:50.696Z,11.14
2023-05-30T05:16:18.630Z,11.25
2023-05-30T05:18:47.202Z,11.33
2023-05-30T05:21:15.767Z,11.46
2023-05-30T05:23:44.083Z,11.56
2023-05-30T05:26:13.053Z,11.67
2023-05-30T05:28:42.096Z,11.82
2023-05-30T05:31:09.956Z,11.93
2023-05-30T05:33:37.884Z,12.03
2023-05-30T05:36:08.133Z,12.08
2023-05-30T05:38:36.495Z,12.19
2023-05-30T05:41:04.411Z,12.31
2023-05-30T05:43:32.279Z,12.48
2023-05-30T05:46:00.581Z,12.65
2023-05-30T05:48:29.003Z,12.74
2023-05-30T05:50:57.611Z,12.79
2023-05-30T05:53:26.731Z,12.92
2023-05-30T05:55:56.162Z,13.00
2023-05-30T05:58:24.448Z,13.03
2023-05-30T06:00:52.815Z,13.10
2023-05-30T06:03:21.257Z,13.24
2023-05-30T06:05:49.993Z,13.37
2023-05-30T06:08:17.959Z,13.46
2023-05-30T06:10:46.638Z,13.56
2023-05-30T06:13:17.058Z,13.64
2023-05-30T06:15:44.940Z,13.76
2023-05-30T06:18:13.694Z,13.85
2023-05-30T06:20:42.183Z,13.94
2023-05-30T06:23:10.099Z,14.00
2023-05-30T06:25:37.925Z,14.04
2023-05-30T06:28:06.582Z,14.12
2023-05-30T06:30:34.548Z,14.23
2023-05-30T06:33:04.546Z,14.33
2023-05-30T06:35:33.206Z,14.39
2023-05-30T06:38:01.809Z,14.50
2023-05-30T06:40:29.717Z,14.58
2023-05-30T06:42:58.451Z,14.65
2023-05-30T06:45:26.839Z,14.70
2023-05-30T06:47:55.517Z,14.76
2023-05-30T06:50:23.725Z,14.86
2023-05-30T06:52:53.596Z,15.00
2023-05-30T06:55:22.388Z,15.09
2023-05-30T06:57:55.777Z,15.11
2023-05-30T07:00:23.735Z,15.14
2023-05-30T07:02:52.025Z,15.17
2023-05-30T07:05:20.489Z,15.18
2023-05-30T07:07:48.804Z,15.21
2023-05-30T07:10:20.410Z,15.29
2023-05-30T07:12:48.350Z,15.33
2023-05-30T07:15:17.103Z,15.34
2023-05-30T07:17:46.054Z,15.41
2023-05-30T07:20:15.477Z,15.45
2023-05-30T07:22:43.704Z,15.46
2023-05-30T07:25:13.073Z,15.51
2023-05-30T07:27:41.498Z,15.59
2023-05-30T07:30:10.148Z,15.67
2023-05-30T07:32:38.469Z,15.68
2023-05-30T07:35:07.163Z,15.75
2023-05-30T07:37:38.799Z,15.92
2023-05-30T07:40:08.615Z,16.01
2023-05-30T07:42:39.954Z,16.04
2023-05-30T07:45:08.747Z,16.01
2023-05-30T07:47:37.183Z,16.02
2023-05-30T07:50:07.758Z,16.10
2023-05-30T07:52:37.128Z,16.17
2023-05-30T07:55:06.145Z,16.26
2023-05-30T07:57:34.411Z,16.27
2023-05-30T08:00:02.882Z,16.22
2023-05-30T08:02:40.083Z,16.25
2023-05-30T08:05:08.837Z,16.39
2023-05-30T08:07:37.688Z,16.53
2023-05-30T08:10:08.497Z,16.59
2023-05-30T08:12:37.464Z,16.67
2023-05-30T08:15:08.921Z,16.81
2023-05-30T08:17:37.227Z,16.92
2023-05-30T08:20:08.137Z,17.01
2023-05-30T08:22:37.897Z,17.12
2023-05-30T08:25:07.163Z,17.07
2023-05-30T08:27:35.723Z,16.95
2023-05-30T08:30:04.529Z,16.93
2023-05-30T08:32:34.754Z,16.89
2023-05-30T08:35:03.543Z,16.87
2023-05-30T08:37:31.473Z,16.85
2023-05-30T08:39:59.688Z,16.86
2023-05-30T08:42:27.735Z,16.94
2023-05-30T08:44:55.721Z,16.99
2023-05-30T08:47:24.942Z,17.02
2023-05-30T08:49:54.421Z,17.05
2023-05-30T08:52:29.828Z,17.12
2023-05-30T08:55:08.787Z,17.15
2023-05-30T08:57:49.893Z,17.20
2023-05-30T09:00:19.466Z,17.29
2023-05-30T09:02:57.445Z,17.43
2023-05-30T09:05:27.033Z,17.53
2023-05-30T09:07:58.182Z,17.53
2023-05-30T09:10:29.789Z,17.51
2023-05-30T09:13:01.161Z,17.60
2023-05-30T09:15:29.372Z,17.66
2023-05-30T09:17:58.104Z,17.68
2023-05-30T09:20:31.750Z,17.61
2023-05-30T09:23:03.059Z,17.57
2023-05-30T09:25:49.800Z,17.58
2023-05-30T09:28:29.637Z,17.70
2023-05-30T09:31:02.985Z,17.73
2023-05-30T09:33:50.679Z,17.63
2023-05-30T09:36:21.741Z,17.66
2023-05-30T09:38:57.697Z,17.71
2023-05-30T09:41:27.826Z,17.74
2023-05-30T09:43:58.056Z,17.83
2023-05-30T09:46:31.678Z,17.89
2023-05-30T09:49:00.388Z,18.00
2023-05-30T09:51:31.010Z,18.09
2023-05-30T09:54:05.116Z,18.21
2023-05-30T09:56:44.055Z,18.32
2023-05-30T09:59:14.628Z,18.27
2023-05-30T10:01:44.984Z,18.25
2023-05-30T10:04:16.520Z,18.22
2023-05-30T10:06:47.840Z,18.18
2023-05-30T10:09:17.173Z,18.30
2023-05-30T10:11:46.106Z,18.42
2023-05-30T10:14:15.186Z,18.43
2023-05-30T10:16:50.449Z,18.49
2023-05-30T10:19:26.277Z,18.57
2023-05-30T10:22:00.639Z,18.65
2023-05-30T10:24:30.333Z,18.71
2023-05-30T10:27:05.678Z,18.84
2023-05-30T10:29:47.771Z,18.93
2023-05-30T10:32:25.599Z,18.95
2023-05-30T10:35:00.441Z,19.03
2023-05-30T10:37:29.033Z,19.05
2023-05-30T10:40:26.635Z,19.09
2023-05-30T10:43:06.798Z,19.09
2023-05-30T10:46:05.684Z,19.14
2023-05-30T10:48:48.825Z,19.24
2023-05-30T10:51:17.877Z,19.33
2023-05-30T10:53:49.418Z,19.39
2023-05-30T10:56:41.839Z,19.43
2023-05-30T10:59:19.745Z,19.47
2023-05-30T11:02:02.756Z,19.48
2023-05-30T11:04:46.380Z,19.52
2023-05-30T11:07:15.540Z,19.57
2023-05-30T11:10:02.546Z,19.59
2023-05-30T11:12:31.485Z,19.75
2023-05-30T11:15:01.627Z,19.92
2023-05-30T11:17:36.012Z,20.02
2023-05-30T11:20:18.641Z,20.05
2023-05-30T11:23:02.360Z,20.14
2023-05-30T11:25:33.869Z,20.14
2023-05-30T11:28:04.741Z,20.04
2023-05-30T11:30:39.440Z,20.10
2023-05-30T11:33:12.143Z,20.16
2023-05-30T11:35:43.750Z,20.24
2023-05-30T11:38:20.963Z,20.25
2023-05-30T11:40:52.561Z,20.33
2023-05-30T11:43:21.573Z,20.52
2023-05-30T11:45:57.991Z,20.64
2023-05-30T11:48:26.344Z,20.66
2023-05-30T11:50:56.891Z,20.71
2023-05-30T11:53:26.407Z,20.67
2023-05-30T11:55:54.839Z,20.71
2023-05-30T11:58:23.746Z,20.68
2023-05-30T12:00:53.402Z,20.72
2023-05-30T12:03:25.474Z,20.72
2023-05-30T12:05:53.836Z,20.70
2023-05-30T12:08:22.821Z,20.66
2023-05-30T12:10:51.863Z,20.67
2023-05-30T12:13:20.803Z,20.85
2023-05-30T12:15:51.132Z,20.96
2023-05-30T12:18:21.492Z,20.88
2023-05-30T12:20:52.697Z,20.99
2023-05-30T12:23:26.875Z,21.01
2023-05-30T12:25:56.848Z,21.01
2023-05-30T12:28:25.485Z,21.16
2023-05-30T12:30:55.159Z,21.36
2023-05-30T12:33:25.065Z,21.41
2023-05-30T12:35:57.650Z,21.35
2023-05-30T12:38:25.723Z,21.21
2023-05-30T12:40:54.021Z,21.22
2023-05-30T12:43:29.718Z,21.29
2023-05-30T12:46:11.475Z,21.31
2023-05-30T12:48:39.849Z,21.31
2023-05-30T12:51:08.678Z,21.45
2023-05-30T12:53:36.891Z,21.54
2023-05-30T12:56:05.394Z,21.59
2023-05-30T12:58:34.181Z,21.58
2023-05-30T13:01:02.830Z,21.58
2023-05-30T13:03:32.981Z,21.69
2023-05-30T13:06:01.371Z,21.80
2023-05-30T13:08:30.465Z,21.85
2023-05-30T13:10:59.844Z,21.86
2023-05-30T13:13:31.641Z,21.94
2023-05-30T13:15:59.699Z,21.97
2023-05-30T13:18:28.209Z,22.02
2023-05-30T13:20:57.572Z,22.03
2023-05-30T13:23:25.912Z,22.02
2023-05-30T13:25:54.547Z,22.00
2023-05-30T13:28:22.856Z,22.01
2023-05-30T13:30:51.809Z,22.07
2023-05-30T13:33:20.838Z,22.14
2023-05-30T13:35:48.878Z,22.19
2023-05-30T13:38:17.079Z,22.20
2023-05-30T13:40:44.937Z,22.10
2023-05-30T13:43:13.807Z,22.16
2023-05-30T13:45:42.969Z,22.19
2023-05-30T13:48:11.907Z,22.09
2023-05-30T13:50:39.883Z,22.04
2023-05-30T13:53:08.585Z,21.97
2023-05-30T13:55:37.301Z,21.92
2023-05-30T13:58:08.338Z,22.00
2023-05-30T14:00:36.915Z,22.02
2023-05-30T14:03:06.090Z,21.97
2023-05-30T14:05:36.461Z,21.95
2023-05-30T14:08:05.410Z,21.97
2023-05-30T14:10:33.340Z,22.02
2023-05-30T14:13:02.210Z,22.03
2023-05-30T14:15:32.369Z,21.96
2023-05-30T14:18:00.904Z,21.87
2023-05-30T14:20:28.935Z,21.75
2023-05-30T14:22:57.620Z,21.83
2023-05-30T14:25:25.556Z,21.90
2023-05-30T14:27:54.093Z,21.94
2023-05-30T14:30:22.335Z,22.20
2023-05-30T14:32:51.269Z,23.98
2023-05-30T14:35:20.131Z,26.56
2023-05-30T14:37:48.178Z,28.13
2023-05-30T14:40:16.874Z,28.97
2023-05-30T14:42:45.255Z,29.41
2023-05-30T14:45:13.252Z,31.29
2023-05-30T14:47:41.230Z,32.99
2023-05-30T14:50:11.207Z,34.52
2023-05-30T14:52:39.204Z,36.12
2023-05-30T14:55:08.409Z,37.55
2023-05-30T14:57:36.835Z,38.49
2023-05-30T15:00:06.794Z,39.13
2023-05-30T15:02:35.468Z,39.06
2023-05-30T15:05:04.301Z,38.60
2023-05-30T15:07:32.948Z,38.62
2023-05-30T15:10:01.638Z,36.16
2023-05-30T15:12:30.444Z,36.04
2023-05-30T15:14:59.003Z,37.00
2023-05-30T15:17:27.720Z,37.48
2023-05-30T15:19:56.417Z,35.87
2023-05-30T15:22:24.468Z,34.69
2023-05-30T15:24:52.446Z,35.39
2023-05-30T15:27:21.048Z,36.53
2023-05-30T15:29:48.990Z,37.78
2023-05-30T15:32:17.466Z,38.51
2023-05-30T15:34:46.288Z,38.88
2023-05-30T15:37:14.523Z,39.02
2023-05-30T15:39:42.723Z,39.58
2023-05-30T15:42:11.096Z,40.43
2023-05-30T15:44:39.049Z,40.62
2023-05-30T15:47:09.425Z,40.85
2023-05-30T15:49:37.754Z,41.05
2023-05-30T15:52:06.650Z,40.62
2023-05-30T15:54:34.642Z,40.97
2023-05-30T15:57:03.889Z,41.06
2023-05-30T15:59:32.311Z,40.24
2023-05-30T16:02:02.321Z,39.99
2023-05-30T16:04:30.801Z,40.57
2023-05-30T16:06:59.180Z,40.98
2023-05-30T16:09:27.453Z,40.77
2023-05-30T16:11:55.424Z,41.63
2023-05-30T16:14:26.180Z,42.04
2023-05-30T16:16:54.500Z,41.49
2023-05-30T16:19:23.123Z,41.51
2023-05-30T16:21:51.392Z,41.07
2023-05-30T16:24:20.597Z,40.86
2023-05-30T16:26:48.970Z,41.04
2023-05-30T16:29:17.139Z,41.17
2023-05-30T16:31:45.361Z,41.36
2023-05-30T16:34:13.399Z,41.25
2023-05-30T16:36:44.041Z,40.21
2023-05-30T16:39:13.856Z,40.30
2023-05-30T16:41:42.301Z,40.18
2023-05-30T16:44:11.528Z,40.29
2023-05-30T16:46:42.047Z,40.27
2023-05-30T16:49:12.161Z,40.66
2023-05-30T16:51:41.492Z,39.66
2023-05-30T16:54:11.685Z,39.69
2023-05-30T16:56:39.925Z,39.75
2023-05-30T16:59:08.495Z,39.89
2023-05-30T17:01:36.872Z,39.23
2023-05-30T17:04:05.203Z,38.59
2023-05-30T17:06:34.510Z,38.25
2023-05-30T17:09:02.387Z,38.25
2023-05-30T17:11:30.576Z,38.41
2023-05-30T17:13:58.982Z,38.60
2023-05-30T17:16:27.245Z,38.45
2023-05-30T17:18:55.939Z,37.95
2023-05-30T17:21:24.684Z,37.57
2023-05-30T17:23:55.008Z,37.69
2023-05-30T17:26:24.611Z,37.38
2023-05-30T17:28:53.325Z,37.03
2023-05-30T17:31:21.628Z,36.90
2023-05-30T17:33:52.026Z,37.07
2023-05-30T17:36:19.920Z,36.73
2023-05-30T17:38:48.566Z,36.60
2023-05-30T17:41:18.888Z,36.40
2023-05-30T17:43:47.180Z,36.06
2023-05-30T17:46:15.894Z,35.54
2023-05-30T17:48:43.967Z,35.58
2023-05-30T17:51:12.327Z,35.43
2023-05-30T17:53:51.181Z,34.63
2023-05-30T17:56:25.024Z,34.33
2023-05-30T17:58:53.363Z,34.10
2023-05-30T18:01:22.241Z,33.98
2023-05-30T18:03:50.619Z,33.80
2023-05-30T18:06:27.057Z,33.59
2023-05-30T18:08:56.969Z,33.17
2023-05-30T18:11:25.547Z,32.85
2023-05-30T18:13:54.266Z,32.49
2023-05-30T18:16:23.786Z,32.06
2023-05-30T18:18:53.637Z,31.47
2023-05-30T18:21:22.860Z,30.89
2023-05-30T18:23:51.744Z,30.56
2023-05-30T18:26:21.429Z,30.08
2023-05-30T18:28:50.557Z,29.20
2023-05-30T18:31:19.155Z,28.23
2023-05-30T18:33:47.195Z,27.26
2023-05-30T18:36:16.410Z,26.32
2023-05-30T18:38:47.675Z,25.40
2023-05-30T18:41:17.673Z,24.72
2023-05-30T18:43:48.498Z,24.17
2023-05-30T18:46:18.010Z,23.64
2023-05-30T18:48:48.491Z,23.03
2023-05-30T18:51:19.955Z,22.57
2023-05-30T18:53:48.242Z,22.16
2023-05-30T18:56:17.978Z,21.77
2023-05-30T18:58:46.254Z,21.36
2023-05-30T19:01:16.075Z,20.89
2023-05-30T19:03:45.328Z,20.47
2023-05-30T19:06:14.714Z,20.10
2023-05-30T19:08:47.775Z,19.73
2023-05-30T19:11:19.521Z,19.33
2023-05-30T19:13:48.724Z,19.01
2023-05-30T19:16:19.888Z,18.75
2023-05-30T19:18:49.471Z,18.45
2023-05-30T19:21:18.046Z,18.08
2023-05-30T19:23:46.438Z,17.73
2023-05-30T19:26:17.071Z,17.43
2023-05-30T19:28:47.604Z,17.15
2023-05-30T19:31:18.032Z,16.92
2023-05-30T19:33:48.772Z,16.74
2023-05-30T19:36:18.706Z,16.57
2023-05-30T19:38:47.880Z,16.37
2023-05-30T19:41:18.564Z,16.15
2023-05-30T19:43:48.710Z,15.96
2023-05-30T19:46:17.408Z,15.78
2023-05-30T19:48:45.818Z,15.63
2023-05-30T19:51:16.628Z,15.46
2023-05-30T19:53:44.633Z,15.31
2023-05-30T19:56:14.500Z,15.17
2023-05-30T19:58:43.204Z,15.05
2023-05-30T20:01:11.248Z,14.94
2023-05-30T20:03:43.838Z,14.80
2023-05-30T20:06:16.040Z,14.67
2023-05-30T20:08:43.995Z,14.53
2023-05-30T20:11:12.994Z,14.38
2023-05-30T20:13:41.748Z,14.24
2023-05-30T20:16:13.683Z,14.13
2023-05-30T20:18:49.931Z,14.01
2023-05-30T20:21:20.062Z,13.87
2023-05-30T20:23:48.503Z,13.75
2023-05-30T20:26:16.542Z,13.66
2023-05-30T20:28:44.852Z,13.55
2023-05-30T20:31:13.643Z,13.46
2023-05-30T20:33:41.921Z,13.36
2023-05-30T20:36:12.077Z,13.22
2023-05-30T20:38:40.216Z,13.13
2023-05-30T20:41:08.394Z,13.04
2023-05-30T20:43:37.223Z,12.95
2023-05-30T20:46:05.458Z,12.84
2023-05-30T20:48:33.734Z,12.77
2023-05-30T20:51:02.239Z,12.69
2023-05-30T20:53:30.625Z,12.59
2023-05-30T20:55:58.867Z,12.50
2023-05-30T20:58:27.753Z,12.41
2023-05-30T21:00:56.024Z,12.35
2023-05-30T21:03:25.392Z,12.28
2023-05-30T21:05:53.529Z,12.22
2023-05-30T21:08:22.190Z,12.25
2023-05-30T21:10:50.033Z,12.27
2023-05-30T21:13:18.845Z,12.29
2023-05-30T21:15:47.230Z,12.31
2023-05-30T21:18:15.140Z,12.31
2023-05-30T21:20:44.195Z,12.33
2023-05-30T21:23:12.464Z,12.37
2023-05-30T21:25:41.566Z,12.42
2023-05-30T21:28:09.462Z,12.46
2023-05-30T21:30:38.101Z,12.52
2023-05-30T21:33:06.621Z,12.61
2023-05-30T21:35:34.914Z,12.71
2023-05-30T21:38:03.154Z,12.79
2023-05-30T21:40:31.024Z,12.86
2023-05-30T21:42:59.603Z,12.92
2023-05-30T21:45:28.154Z,12.98
2023-05-30T21:47:57.149Z,12.99
2023-05-30T21:50:25.035Z,13.01
2023-05-30T21:52:52.949Z,13.05
2023-05-30T21:55:21.602Z,13.05
2023-05-30T21:57:50.286Z,13.05
2023-05-30T22:00:19.466Z,13.06
2023-05-30T22:02:48.121Z,13.11
2023-05-30T22:05:17.113Z,13.14
2023-05-30T22:07:45.569Z,13.12
2023-05-30T22:10:13.905Z,13.14
2023-05-30T22:12:41.759Z,13.16
2023-05-30T22:15:10.693Z,13.17
2023-05-30T22:17:40.318Z,13.17
2023-05-30T22:20:09.700Z,13.18
2023-05-30T22:22:38.393Z,13.20
2023-05-30T22:25:07.381Z,13.22
2023-05-30T22:27:35.561Z,13.24
2023-05-30T22:30:04.260Z,13.25
2023-05-30T22:32:33.894Z,13.24
2023-05-30T22:35:03.000Z,13.23
2023-05-30T22:37:31.038Z,13.22
2023-05-30T22:39:59.562Z,13.20
2023-05-30T22:42:27.779Z,13.17
2023-05-30T22:44:56.158Z,13.15
2023-05-30T22:47:24.079Z,13.11
2023-05-30T22:49:52.211Z,13.05
2023-05-30T22:52:20.480Z,13.00
2023-05-30T22:54:48.755Z,12.95
2023-05-30T22:57:17.033Z,12.92
2023-05-30T22:59:44.970Z,12.88
2023-05-30T23:02:13.646Z,12.82
2023-05-30T23:04:42.268Z,12.76
2023-05-30T23:07:11.085Z,12.71
2023-05-30T23:09:39.252Z,12.66
2023-05-30T23:12:08.576Z,12.61
2023-05-30T23:14:37.057Z,12.56
2023-05-30T23:17:06.181Z,12.50
2023-05-30T23:19:34.359Z,12.44
2023-05-30T23:22:02.568Z,12.40
2023-05-30T23:24:30.406Z,12.35
2023-05-30T23:26:58.612Z,12.27
2023-05-30T23:29:27.009Z,12.20
2023-05-30T23:31:55.679Z,12.15
2023-05-30T23:34:23.514Z,12.09
2023-05-30T23:36:51.631Z,12.04
2023-05-30T23:39:19.606Z,11.97
2023-05-30T23:41:47.814Z,11.91
2023-05-30T23:44:16.544Z,11.84
2023-05-30T23:46:44.814Z,11.78
2023-05-30T23:49:16.808Z,11.73
2023-05-30T23:51:48.270Z,11.67
2023-05-30T23:54:16.744Z,11.63
2023-05-30T23:56:45.000Z,11.57
2023-05-30T23:59:13.199Z,11.50
